Terminal Aerodrome Forecast
Issued by NWS

Home | Current Version | Previous Version | Text Only | Print | Product List | Glossary On
Versions: 1 2 3 4 5 6 7 8 9 10 11 12 13 14 15 16 17 18 19 20 21 22 23 24
571
FTUS45 KPSR 241721
TAFPHX
TAF
KPHX 241721Z 2418/2518 13005KT P6SM SKC
     FM242100 26012G22KT P6SM SCT200
      TEMPO 2422/2502 26016G26KT
     FM250400 27015KT P6SM SCT200
     FM250600 24006KT P6SM SCT200
     FM250900 14006KT P6SM SCT150=

USA.gov is the U.S. government's official web portal to all federal, state and local government web resources and services.